sensor_id;sensor_type;location;lat;lon;timestamp;P1;durP1;ratioP1;P2;durP2;ratioP2
75098;SDS011;63685;47.374;8.498;2022-09-20T10:26:05;7.45;;;1.98;;
75098;SDS011;63685;47.374;8.498;2022-09-20T10:29:05;7.80;;;2.05;;
75098;SDS011;63685;47.374;8.498;2022-09-20T20:20:44;11.23;;;2.28;;
75098;SDS011;63685;47.374;8.498;2022-09-20T20:26:06;10.23;;;2.45;;
75098;SDS011;63685;47.374;8.498;2022-09-20T20:28:34;9.25;;;2.72;;
75098;SDS011;63685;47.374;8.498;2022-09-20T20:31:00;7.05;;;2.20;;
75098;SDS011;63685;47.374;8.498;2022-09-20T20:33:26;7.55;;;2.05;;
75098;SDS011;63685;47.374;8.498;2022-09-20T20:35:53;6.75;;;2.08;;
75098;SDS011;63685;47.374;8.498;2022-09-20T20:38:20;8.32;;;2.20;;
75098;SDS011;63685;47.374;8.498;2022-09-20T20:41:03;7.13;;;2.33;;
75098;SDS011;63685;47.374;8.498;2022-09-20T20:43:34;13.55;;;2.40;;
75098;SDS011;63685;47.374;8.498;2022-09-20T20:46:02;13.65;;;3.00;;
75098;SDS011;63685;47.374;8.498;2022-09-20T20:48:29;12.35;;;2.72;;
75098;SDS011;63685;47.374;8.498;2022-09-20T20:50:58;9.05;;;2.22;;
75098;SDS011;63685;47.374;8.498;2022-09-20T20:53:28;7.95;;;2.28;;
75098;SDS011;63685;47.374;8.498;2022-09-20T20:55:59;11.05;;;2.22;;
75098;SDS011;63685;47.374;8.498;2022-09-20T20:58:30;7.13;;;2.05;;
75098;SDS011;63685;47.374;8.498;2022-09-20T21:01:03;13.00;;;2.58;;
75098;SDS011;63685;47.374;8.498;2022-09-20T21:03:29;9.23;;;1.90;;
75098;SDS011;63685;47.374;8.498;2022-09-20T21:05:55;7.20;;;2.58;;
75098;SDS011;63685;47.374;8.498;2022-09-20T21:08:21;6.60;;;2.00;;
75098;SDS011;63685;47.374;8.498;2022-09-20T21:10:46;9.80;;;2.10;;
75098;SDS011;63685;47.374;8.498;2022-09-20T21:13:12;9.27;;;2.45;;
75098;SDS011;63685;47.374;8.498;2022-09-20T21:15:37;12.07;;;2.35;;
75098;SDS011;63685;47.374;8.498;2022-09-20T21:18:03;12.98;;;2.47;;
75098;SDS011;63685;47.374;8.498;2022-09-20T21:20:28;17.77;;;2.47;;
75098;SDS011;63685;47.374;8.498;2022-09-20T21:22:55;18.63;;;2.53;;
75098;SDS011;63685;47.374;8.498;2022-09-20T21:25:20;10.23;;;2.85;;
75098;SDS011;63685;47.374;8.498;2022-09-20T21:27:46;13.05;;;2.10;;
75098;SDS011;63685;47.374;8.498;2022-09-20T21:30:12;14.25;;;2.45;;
75098;SDS011;63685;47.374;8.498;2022-09-20T21:32:37;23.75;;;3.50;;
75098;SDS011;63685;47.374;8.498;2022-09-20T21:35:03;19.85;;;3.03;;
75098;SDS011;63685;47.374;8.498;2022-09-20T21:37:29;22.05;;;3.53;;
75098;SDS011;63685;47.374;8.498;2022-09-20T21:39:55;30.48;;;3.58;;
75098;SDS011;63685;47.374;8.498;2022-09-20T21:42:20;13.82;;;2.67;;
75098;SDS011;63685;47.374;8.498;2022-09-20T21:44:46;21.80;;;3.75;;
75098;SDS011;63685;47.374;8.498;2022-09-20T21:47:11;25.25;;;3.88;;
75098;SDS011;63685;47.374;8.498;2022-09-20T21:49:44;19.70;;;2.92;;
75098;SDS011;63685;47.374;8.498;2022-09-20T21:52:10;17.40;;;3.78;;
75098;SDS011;63685;47.374;8.498;2022-09-20T21:54:36;13.90;;;2.60;;
75098;SDS011;63685;47.374;8.498;2022-09-20T21:57:01;24.17;;;3.08;;
75098;SDS011;63685;47.374;8.498;2022-09-20T21:59:27;19.75;;;4.20;;
75098;SDS011;63685;47.374;8.498;2022-09-20T22:01:53;17.58;;;3.42;;
75098;SDS011;63685;47.374;8.498;2022-09-20T22:04:19;18.35;;;3.60;;
75098;SDS011;63685;47.374;8.498;2022-09-20T22:06:44;15.40;;;2.80;;
75098;SDS011;63685;47.374;8.498;2022-09-20T22:09:13;14.30;;;3.30;;
75098;SDS011;63685;47.374;8.498;2022-09-20T22:11:44;13.27;;;2.97;;
75098;SDS011;63685;47.374;8.498;2022-09-20T22:14:11;12.43;;;2.53;;
75098;SDS011;63685;47.374;8.498;2022-09-20T22:16:39;13.52;;;3.00;;
75098;SDS011;63685;47.374;8.498;2022-09-20T22:19:07;9.05;;;2.60;;
75098;SDS011;63685;47.374;8.498;2022-09-20T22:21:35;10.52;;;2.45;;
75098;SDS011;63685;47.374;8.498;2022-09-20T22:24:03;12.35;;;2.55;;
75098;SDS011;63685;47.374;8.498;2022-09-20T22:26:35;12.75;;;2.63;;
75098;SDS011;63685;47.374;8.498;2022-09-20T22:29:02;8.80;;;2.55;;
75098;SDS011;63685;47.374;8.498;2022-09-20T22:31:29;8.95;;;2.30;;
75098;SDS011;63685;47.374;8.498;2022-09-20T22:33:56;13.52;;;2.65;;
75098;SDS011;63685;47.374;8.498;2022-09-20T22:36:25;11.68;;;2.28;;
75098;SDS011;63685;47.374;8.498;2022-09-20T22:38:54;13.55;;;2.50;;
75098;SDS011;63685;47.374;8.498;2022-09-20T22:41:20;10.77;;;2.83;;
75098;SDS011;63685;47.374;8.498;2022-09-20T22:43:47;10.85;;;2.45;;
75098;SDS011;63685;47.374;8.498;2022-09-20T22:46:14;12.73;;;2.85;;
75098;SDS011;63685;47.374;8.498;2022-09-20T22:48:41;11.45;;;2.65;;
75098;SDS011;63685;47.374;8.498;2022-09-20T22:51:08;10.70;;;2.15;;
75098;SDS011;63685;47.374;8.498;2022-09-20T22:53:36;13.40;;;3.67;;
75098;SDS011;63685;47.374;8.498;2022-09-20T22:58:38;11.10;;;2.40;;
75098;SDS011;63685;47.374;8.498;2022-09-20T23:03:38;11.52;;;2.33;;
75098;SDS011;63685;47.374;8.498;2022-09-20T23:06:15;12.98;;;2.67;;
75098;SDS011;63685;47.374;8.498;2022-09-20T23:08:49;11.43;;;2.30;;
75098;SDS011;63685;47.374;8.498;2022-09-20T23:11:16;11.50;;;2.42;;
75098;SDS011;63685;47.374;8.498;2022-09-20T23:13:42;8.52;;;2.33;;
75098;SDS011;63685;47.374;8.498;2022-09-20T23:16:16;9.90;;;2.30;;
75098;SDS011;63685;47.374;8.498;2022-09-20T23:18:44;6.55;;;2.17;;
75098;SDS011;63685;47.374;8.498;2022-09-20T23:21:10;8.77;;;2.00;;
75098;SDS011;63685;47.374;8.498;2022-09-20T23:23:36;8.32;;;2.08;;
75098;SDS011;63685;47.374;8.498;2022-09-20T23:26:05;11.48;;;2.70;;
75098;SDS011;63685;47.374;8.498;2022-09-20T23:28:35;12.25;;;2.30;;
75098;SDS011;63685;47.374;8.498;2022-09-20T23:31:03;7.65;;;2.20;;
75098;SDS011;63685;47.374;8.498;2022-09-20T23:33:33;7.57;;;2.25;;
75098;SDS011;63685;47.374;8.498;2022-09-20T23:35:59;6.82;;;2.35;;
75098;SDS011;63685;47.374;8.498;2022-09-20T23:38:26;7.55;;;2.00;;
75098;SDS011;63685;47.374;8.498;2022-09-20T23:40:51;10.05;;;2.30;;
75098;SDS011;63685;47.374;8.498;2022-09-20T23:43:17;9.27;;;2.20;;
75098;SDS011;63685;47.374;8.498;2022-09-20T23:45:43;7.00;;;1.90;;
75098;SDS011;63685;47.374;8.498;2022-09-20T23:48:09;7.32;;;1.90;;
75098;SDS011;63685;47.374;8.498;2022-09-20T23:50:34;5.00;;;1.90;;
75098;SDS011;63685;47.374;8.498;2022-09-20T23:53:00;9.48;;;2.42;;
75098;SDS011;63685;47.374;8.498;2022-09-20T23:55:25;6.15;;;2.17;;
75098;SDS011;63685;47.374;8.498;2022-09-20T23:57:54;9.45;;;2.30;;
